• Join FlightAware (Why Join?)
  • Login
  • US Flag 
01:35PM EDT


 

Airport Tracker/Info


-or-


 

Live Flight TrackerFlight Track Log ✈ SWA876 ✈ 06-Apr-2013 ✈ KLAS - KCMH

Flight Track Log - Related Links

Times and Time Zones

All times are in EDT time to prevent confusion due to time zone crossing. See the SWA876 flight status page for this flight to view local times or setup timezone preferences in your user account.

Time Position Orientation Groundspeed Altitude Reporting Facility
EDT Latitude Longitude Course Direction KTS MPH feet Rate Location/Type
07:42PM 36.0742 -115.1794 273° West 177 204 3,500  Level Los Angeles Center
07:42PM 36.0750 -115.2031 273° West 183 211 4,100 2,400 Climbing Los Angeles Center
07:43PM 36.0872 -115.2789 281° West 233 268 6,900 2,700 Climbing Los Angeles Center
07:43PM 36.1122 -115.2886 343° North 232 267 7,900 2,640 Climbing Los Angeles Center
07:44PM 36.1536 -115.2864 North 255 293 9,600 2,700 Climbing Los Angeles Center
07:44PM 36.1711 -115.2553 55° Northeast 255 293 10,700 1,860 Climbing Los Angeles Center
07:45PM 36.1894 -115.2028 67° East 299 344 11,500 1,080 Climbing Los Angeles Center
07:45PM 36.1972 -115.1592 78° East 292 336 11,800 1,920 Climbing Los Angeles Center
07:46PM 36.1989 -115.0319 89° East 359 413 14,300 2,220 Climbing Los Angeles Center
07:47PM 36.1994 -114.8997 90° East 378 435 16,400 2,040 Climbing Los Angeles Center
07:48PM 36.2003 -114.7594 90° East 399 459 18,600 2,400 Climbing Los Angeles Center
07:50PM 36.2000 -114.5819 90° East 424 488 21,400 2,160 Climbing Los Angeles Center
07:51PM 36.1964 -114.4314 92° East 434 499 23,100 1,560 Climbing Los Angeles Center
07:52PM 36.1956 -114.2756 90° East 446 513 24,700 1,440 Climbing Los Angeles Center
07:53PM 36.2075 -114.1161 85° East 459 528 26,100 1,200 Climbing Los Angeles Center
07:54PM 36.2278 -113.9528 81° East 478 550 27,300 1,200 Climbing Los Angeles Center
07:55PM 36.2481 -113.7856 81° East 488 562 28,600 1,140 Climbing Los Angeles Center
07:56PM 36.2675 -113.6147 82° East 498 573 29,700 1,020 Climbing Los Angeles Center
07:57PM 36.2914 -113.4044 82° East 512 589 30,800 1,080 Climbing Los Angeles Center
07:58PM 36.3131 -113.2322 81° East 519 597 32,000 1,200 Climbing Los Angeles Center
07:59PM 36.3692 -113.0700 67° East 515 593 33,400 1,200 Climbing Los Angeles Center
08:00PM 36.4269 -112.9119 66° East 507 583 34,600 1,080 Climbing Los Angeles Center
08:01PM 36.4842 -112.7550 66° East 503 579 35,700 960 Climbing Los Angeles Center
08:02PM 36.5542 -112.5661 65° Northeast 504 580 36,700 600 Climbing Los Angeles Center
08:03PM 36.6119 -112.4106 65° Northeast 500 575 37,000 120 Climbing Los Angeles Center
08:04PM 36.6683 -112.2536 66° East 500 575 37,000  Level Los Angeles Center
08:05PM 36.7258 -112.0975 65° Northeast 498 573 37,000  Level Los Angeles Center
08:06PM 36.7711 -111.9733 65° Northeast 500 575 37,000  Level Denver Center
08:07PM 36.8267 -111.8167 66° East 499 574 37,000  Level Denver Center
08:08PM 36.8836 -111.6594 66° East 499 574 37,000  Level Denver Center
08:09PM 36.9400 -111.5006 66° East 502 578 37,000  Level Denver Center
08:10PM 36.9808 -111.3314 73° East 509 586 37,000  Level Denver Center
08:11PM 37.0172 -111.1650 75° East 504 580 37,000  Level Denver Center
08:12PM 37.0628 -110.9611 74° East 509 586 37,000  Level Denver Center
08:13PM 37.1019 -110.7917 74° East 509 586 37,000  Level Denver Center
08:14PM 37.1406 -110.6219 74° East 510 587 37,000  Level Denver Center
08:15PM 37.1786 -110.4506 74° East 511 588 37,000  Level Denver Center
08:16PM 37.2169 -110.2794 74° East 512 589 37,000  Level Denver Center
08:17PM 37.2561 -110.0994 75° East 509 586 37,000  Level Denver Center
08:18PM 37.2994 -109.9075 74° East 509 586 37,000  Level Denver Center
08:19PM 37.3342 -109.7433 75° East 508 585 37,000  Level Denver Center
08:20PM 37.3703 -109.5806 74° East 506 582 37,000  Level Denver Center
08:21PM 37.4117 -109.3872 75° East 510 587 37,000  Level Denver Center
08:22PM 37.4472 -109.2197 75° East 515 593 37,000  Level Denver Center
08:23PM 37.4889 -109.0250 75° East 515 593 37,000  Level Denver Center
08:24PM 37.5233 -108.8589 75° East 513 590 37,000  Level Denver Center
08:25PM 37.5581 -108.6883 76° East 520 598 37,000  Level Denver Center
08:26PM 37.5989 -108.4933 75° East 516 594 37,000  Level Denver Center
08:27PM 37.6331 -108.3283 75° East 509 586 37,000  Level Denver Center
08:28PM 37.6664 -108.1611 76° East 510 587 37,000  Level Denver Center
08:29PM 37.7053 -107.9672 76° East 508 585 37,000  Level Denver Center
08:30PM 37.7383 -107.8044 76° East 504 580 37,000  Level Denver Center
08:31PM 37.7758 -107.6103 76° East 508 585 37,000  Level Denver Center
08:32PM 37.8094 -107.4453 75° East 507 583 37,000  Level Denver Center
08:33PM 37.8414 -107.2775 76° East 510 587 37,000  Level Denver Center
08:34PM 37.8778 -107.0889 76° East 510 587 37,000  Level Denver Center
08:35PM 37.9092 -106.9222 77° East 510 587 37,000  Level Denver Center
08:36PM 37.9464 -106.7267 76° East 510 587 37,000  Level Denver Center
08:37PM 37.9781 -106.5594 76° East 512 589 37,000  Level Denver Center
08:38PM 38.0106 -106.3786 77° East 510 587 37,000  Level Denver Center
08:40PM 38.0472 -106.1817 77° East 512 589 37,000  Level Denver Center
08:41PM 38.0786 -106.0128 77° East 513 590 37,000  Level Denver Center
08:42PM 38.1089 -105.8447 77° East 512 589 37,000  Level Denver Center
08:43PM 38.1442 -105.6486 77° East 509 586 37,000  Level Denver Center
08:44PM 38.1733 -105.4808 77° East 508 585 37,000  Level Denver Center
08:45PM 38.2131 -105.2567 77° East 509 586 37,000  Level Denver Center
08:46PM 38.2436 -105.0878 77° East 510 587 37,000  Level Denver Center
08:47PM 38.2742 -104.9203 77° East 508 585 37,000  Level Denver Center
08:48PM 38.3119 -104.7264 76° East 504 580 37,000  Level Denver Center
08:49PM 38.3425 -104.5600 77° East 506 582 37,000  Level Denver Center
08:50PM 38.3761 -104.3839 76° East 508 585 37,000  Level Denver Center
08:51PM 38.4075 -104.2100 77° East 503 579 37,000  Level Denver Center
08:52PM 38.4406 -104.0325 77° East 497 572 37,000  Level Denver Center
08:53PM 38.4753 -103.8375 77° East 502 578 37,000  Level Denver Center
08:54PM 38.5047 -103.6708 77° East 501 577 37,000  Level Denver Center
08:55PM 38.5353 -103.5056 77° East 499 574 37,000  Level Denver Center
08:56PM 38.5658 -103.3311 77° East 496 571 37,000  Level Denver Center
08:57PM 38.5997 -103.1417 77° East 496 571 37,000  Level Denver Center
08:58PM 38.6292 -102.9681 78° East 499 574 37,000  Level Denver Center
08:59PM 38.6581 -102.7950 78° East 495 570 37,000  Level Denver Center
09:00PM 38.6886 -102.6167 78° East 495 570 37,000  Level Denver Center
09:01PM 38.7164 -102.4539 78° East 491 565 37,000  Level Denver Center
09:02PM 38.7478 -102.2656 78° East 488 562 37,000  Level Denver Center
09:03PM 38.7742 -102.1025 78° East 489 563 37,000  Level Denver Center
09:04PM 38.8061 -101.9103 78° East 491 565 37,000  Level Denver Center
09:05PM 38.8328 -101.7475 78° East 486 559 37,000  Level Denver Center
09:06PM 38.8592 -101.5836 78° East 487 560 37,000  Level Denver Center
09:07PM 38.8894 -101.3947 78° East 484 557 37,000  Level Denver Center
09:08PM 38.9147 -101.2311 79° East 486 559 37,000  Level Denver Center
09:09PM 38.9442 -101.0392 79° East 492 566 37,000  Level Denver Center
09:10PM 38.9700 -100.8767 78° East 486 559 37,000  Level Denver Center
09:11PM 38.9947 -100.7108 79° East 492 566 37,000  Level Denver Center
09:12PM 39.0256 -100.5133 79° East 498 573 37,000  Level Denver Center
09:13PM 39.0506 -100.3472 79° East 497 572 37,000  Level Denver Center
09:14PM 39.0744 -100.1806 79° East 496 571 37,000  Level Denver Center
09:15PM 39.1036 -99.9847 79° East 497 572 37,000  Level Denver Center
09:17PM 39.1267 -99.8181 80° East 496 571 37,000  Level Denver Center
09:18PM 39.1550 -99.6239 79° East 494 568 37,000  Level Denver Center
09:19PM 39.1783 -99.4569 80° East 495 570 37,000  Level Denver Center
09:20PM 39.2008 -99.2939 80° East 492 566 37,000  Level Denver Center
09:21PM 39.2283 -99.0997 80° East 495 570 37,000  Level Denver Center
09:22PM 39.2503 -98.9381 80° East 492 566 37,000  Level Denver Center
09:23PM 39.2733 -98.7647 80° East 491 565 37,000  Level Denver Center
09:24PM 39.2967 -98.5914 80° East 492 566 37,000  Level Denver Center
09:25PM 39.3194 -98.4181 80° East 491 565 37,000  Level Denver Center
09:25PM 39.3342 -98.3097 80° East 495 570 37,000  Level Kansas City Center
09:26PM 39.3581 -98.1147 81° East 490 564 37,000  Level Kansas City Center
09:27PM 39.3789 -97.9464 81° East 494 568 37,000  Level Kansas City Center
09:28PM 39.4008 -97.7844 80° East 502 578 37,000  Level Kansas City Center
09:29PM 39.4272 -97.5733 81° East 497 572 37,000  Level Kansas City Center
09:30PM 39.4458 -97.4111 81° East 494 568 37,000  Level Kansas City Center
09:31PM 39.4678 -97.2417 80° East 497 572 37,000  Level Kansas City Center
09:32PM 39.4914 -97.0428 81° East 499 574 37,000  Level Kansas City Center
09:33PM 39.5106 -96.8733 82° East 497 572 37,000  Level Kansas City Center
09:34PM 39.5328 -96.6883 81° East 502 578 37,000  Level Kansas City Center
09:35PM 39.5528 -96.5097 82° East 502 578 37,000  Level Kansas City Center
09:36PM 39.5722 -96.3331 82° East 504 580 37,000  Level Kansas City Center
09:37PM 39.5942 -96.1314 82° East 504 580 37,000  Level Kansas City Center
09:38PM 39.6139 -95.9547 82° East 508 585 37,000  Level Kansas City Center
09:39PM 39.6325 -95.7800 82° East 509 586 37,000  Level Kansas City Center
09:41PM 39.6517 -95.6056 82° East 507 583 37,000  Level Kansas City Center
09:42PM 39.6714 -95.4039 83° East 503 579 37,000  Level Kansas City Center
09:43PM 39.6900 -95.2308 82° East 502 578 37,000  Level Kansas City Center
09:44PM 39.7069 -95.0583 83° East 501 577 37,000  Level Kansas City Center
09:45PM 39.7275 -94.8558 82° East 503 579 37,000  Level Kansas City Center
09:46PM 39.7447 -94.6819 83° East 505 581 37,000  Level Kansas City Center
09:47PM 39.7617 -94.5078 83° East 506 582 37,000  Level Kansas City Center
09:48PM 39.7811 -94.3042 83° East 506 582 37,000  Level Kansas City Center
09:49PM 39.7981 -94.1294 83° East 507 583 37,000  Level Kansas City Center
09:50PM 39.8144 -93.9333 84° East 517 595 37,000  Level Kansas City Center
09:51PM 39.8294 -93.7494 84° East 516 594 37,000  Level Kansas City Center
09:52PM 39.8500 -93.5672 82° East 515 593 37,000  Level Kansas City Center
09:53PM 39.8644 -93.3839 84° East 514 592 37,000  Level Kansas City Center
09:54PM 39.8800 -93.2022 84° East 514 592 37,000  Level Kansas City Center
09:55PM 39.8953 -93.0206 84° East 512 589 37,000  Level Kansas City Center
09:56PM 39.9114 -92.8397 83° East 512 589 37,000  Level Kansas City Center
09:57PM 39.9253 -92.6572 84° East 514 592 37,000  Level Kansas City Center
09:58PM 39.9422 -92.4408 84° East 513 590 37,000  Level Kansas City Center
09:59PM 39.9561 -92.2619 84° East 509 586 37,000  Level Kansas City Center
10:00PM 39.9697 -92.0825 84° East 506 582 37,000  Level Kansas City Center
10:01PM 39.9825 -91.9022 85° East 506 582 37,000  Level Kansas City Center
10:03PM 39.9869 -91.5050 89° East 505 581 37,000  Level Chicago Center
10:04PM 39.9825 -91.3611 92° East 505 581 37,000  Level Kansas City Center
10:05PM 39.9756 -91.1808 93° East 502 578 37,000  Level Kansas City Center
10:06PM 39.9719 -91.0008 91° East 502 578 37,000  Level Kansas City Center
10:07PM 39.9792 -90.7975 87° East 508 585 37,000  Level Kansas City Center
10:08PM 39.9950 -90.6144 84° East 510 587 37,000  Level Kansas City Center
10:09PM 40.0086 -90.4308 84° East 511 588 37,000  Level Kansas City Center
10:10PM 40.0206 -90.2469 85° East 511 588 37,000  Level Kansas City Center
10:11PM 40.0333 -90.0639 85° East 511 588 37,000  Level Kansas City Center
10:12PM 40.0444 -89.8819 85° East 509 586 37,000  Level Kansas City Center
10:13PM 40.0586 -89.6642 85° East 506 582 37,000  Level Kansas City Center
10:14PM 40.0789 -89.4853 82° East 504 580 37,000  Level Kansas City Center
10:15PM 40.1047 -89.3047 79° East 506 582 37,000  Level Kansas City Center
10:16PM 40.1353 -89.0925 79° East 505 581 37,000  Level Chicago Center
10:17PM 40.1603 -88.9158 79° East 501 577 37,000  Level Chicago Center
10:18PM 40.1867 -88.7386 79° East 499 574 37,000  Level Chicago Center
10:19PM 40.1978 -88.5581 85° East 500 575 37,000  Level Chicago Center
10:20PM 40.2050 -88.3917 87° East 498 573 37,000  Level Chicago Center
10:21PM 40.2133 -88.1775 87° East 497 572 37,000  Level Chicago Center
10:22PM 40.2194 -87.9969 87° East 502 578 37,000  Level Chicago Center
10:23PM 40.2258 -87.8175 87° East 501 577 37,000  Level Chicago Center
10:24PM 40.2258 -87.7397 90° East 501 577 37,000 -360 Level Indianapolis Center
10:25PM 40.2319 -87.5567 87° East 500 575 36,500 -780 Descending Indianapolis Center
10:25PM 40.2381 -87.4578 85° East 500 575 35,900 -1,080 Descending Chicago Center
10:26PM 40.2419 -87.2825 88° East 500 575 35,000 -480 Descending Chicago Center
10:27PM 40.2461 -87.0950 88° East 507 583 35,000  Level Chicago Center
10:28PM 40.2514 -86.9081 88° East 509 586 35,000  Level Chicago Center
10:29PM 40.2561 -86.7197 88° East 511 588 35,000  Level Chicago Center
10:30PM 40.2600 -86.5339 88° East 505 581 35,000  Level Chicago Center
10:31PM 40.2644 -86.3497 88° East 501 577 35,000  Level Chicago Center
10:32PM 40.2683 -86.1639 88° East 502 578 35,000  Level Chicago Center
10:33PM 40.2714 -85.9792 89° East 501 577 35,000  Level Chicago Center
10:34PM 40.2742 -85.7936 89° East 504 580 35,000  Level Chicago Center
10:35PM 40.2769 -85.6081 89° East 506 582 35,000  Level Chicago Center
10:36PM 40.2753 -85.4253 91° East 505 581 35,000  Level Chicago Center
10:37PM 40.2636 -85.3367 100° East 493 567 35,000 -1,260 Level Indianapolis Center
10:38PM 40.2464 -85.1567 97° East 493 567 33,100 -2,220 Descending Indianapolis Center
10:39PM 40.2292 -84.9781 97° East 490 564 30,600 -2,580 Descending Indianapolis Center
10:40PM 40.2106 -84.7958 98° East 480 552 28,000 -2,400 Descending Indianapolis Center
10:41PM 40.1922 -84.6269 98° East 466 536 25,800 -2,340 Descending Indianapolis Center
10:42PM 40.1750 -84.4625 98° East 455 524 23,300 -2,460 Descending Indianapolis Center
10:43PM 40.1581 -84.3000 98° East 447 514 20,900 -2,340 Descending Indianapolis Center
10:44PM 40.1419 -84.1408 97° East 437 503 18,700 -2,220 Descending Indianapolis Center
10:45PM 40.1267 -84.0072 98° East 425 489 16,800 -1,980 Descending Indianapolis Center
10:45PM 40.1197 -83.9600 101° East 425 489 16,400 -1,800 Descending Indianapolis Center
10:46PM 40.1067 -83.8369 98° East 412 474 14,700 -2,040 Descending Indianapolis Center
10:47PM 40.0906 -83.6925 98° East 398 458 12,700 -2,040 Descending Indianapolis Center
10:48PM 40.0744 -83.5769 100° East 385 443 10,600 -1,500 Descending Indianapolis Center
10:49PM 40.0533 -83.4117 99° East 309 356 9,400 -1,680 Descending Indianapolis Center
10:50PM 40.0439 -83.3392 100° East 309 356 7,300 -3,000 Descending Indianapolis Center
10:50PM 40.0367 -83.2953 102° East 301 346 6,400 -1,920 Descending Indianapolis Center
10:51PM 40.0300 -83.2339 98° East 299 344 5,400 -1,380 Descending Indianapolis Center
10:51PM 40.0244 -83.2014 103° East 242 278 5,000 -1,140 Descending Indianapolis Center
10:52PM 40.0181 -83.1481 99° East 258 297 4,300 -1,140 Descending Indianapolis Center
10:52PM 40.0133 -83.1183 102° East 232 267 3,900 -1,020 Descending Indianapolis Center
10:53PM 40.0081 -83.0706 98° East 231 266 3,300 -1,020 Descending Indianapolis Center
10:53PM 40.0058 -83.0467 97° East 185 213 2,900 -1,140 Descending Indianapolis Center
10:54PM 40.0011 -83.0050 98° East 200 230 2,200 -900 Descending Indianapolis Center
10:54PM 39.9994 -82.9861 97° East 163 188 2,000 -840 Descending Indianapolis Center
10:55PM 39.9975 -82.9533 94° East 164 189 1,400 -840 Descending Indianapolis Center
10:55PM 39.9967 -82.9367 94° East 135 155 1,200 -540 Descending Indianapolis Center
10:56PM 39.9947 -82.9044 94° East 151 174 900 -420 Descending Indianapolis Center
10:58PM 39.9980 -82.8920 108° East  Level Estimated